createdAt,value
2022-10-23T00:01:50.216Z,11.00
2022-10-23T00:04:20.608Z,11.00
2022-10-23T00:06:50.164Z,10.90
2022-10-23T00:09:20.844Z,10.80
2022-10-23T00:11:50.754Z,10.80
2022-10-23T00:14:21.387Z,10.80
2022-10-23T00:16:51.754Z,10.70
2022-10-23T00:19:20.374Z,10.70
2022-10-23T00:21:48.894Z,10.70
2022-10-23T00:24:17.457Z,10.70
2022-10-23T00:26:46.491Z,10.60
2022-10-23T00:29:18.047Z,10.60
2022-10-23T00:31:46.735Z,10.60
2022-10-23T00:34:16.605Z,10.50
2022-10-23T00:36:46.057Z,10.50
2022-10-23T00:39:14.860Z,10.40
2022-10-23T00:41:43.801Z,10.40
2022-10-23T00:44:50.664Z,10.40
2022-10-23T00:47:19.773Z,10.30
2022-10-23T00:49:49.762Z,10.30
2022-10-23T00:52:18.366Z,10.30
2022-10-23T00:54:47.009Z,10.20
2022-10-23T00:57:16.803Z,10.20
2022-10-23T00:59:45.955Z,10.20
2022-10-23T01:02:15.847Z,10.30
2022-10-23T01:04:45.429Z,10.30
2022-10-23T01:07:24.037Z,10.30
2022-10-23T01:09:58.511Z,10.20
2022-10-23T01:12:34.174Z,10.20
2022-10-23T01:15:09.073Z,10.10
2022-10-23T01:17:44.456Z,10.00
2022-10-23T01:20:29.276Z,10.00
2022-10-23T01:23:33.937Z,10.10
2022-10-23T01:26:20.114Z,10.10
2022-10-23T01:28:54.570Z,10.00
2022-10-23T01:31:28.851Z,10.00
2022-10-23T01:34:04.739Z,10.00
2022-10-23T01:36:34.760Z,10.00
2022-10-23T01:39:07.121Z,9.90
2022-10-23T01:41:42.761Z,9.90
2022-10-23T01:44:18.234Z,9.90
2022-10-23T01:46:50.547Z,9.80
2022-10-23T01:49:21.196Z,9.90
2022-10-23T01:51:54.478Z,9.80
2022-10-23T01:54:27.042Z,9.80
2022-10-23T01:56:57.026Z,9.80
2022-10-23T01:59:32.126Z,9.80
2022-10-23T02:02:02.800Z,9.80
2022-10-23T02:04:34.972Z,9.80
2022-10-23T02:07:03.821Z,9.80
2022-10-23T02:09:33.313Z,9.70
2022-10-23T02:12:09.883Z,9.70
2022-10-23T02:14:51.758Z,9.70
2022-10-23T02:17:27.858Z,9.70
2022-10-23T02:20:03.883Z,9.70
2022-10-23T02:22:39.586Z,9.60
2022-10-23T02:25:14.440Z,9.60
2022-10-23T02:27:47.740Z,9.60
2022-10-23T02:30:19.991Z,9.60
2022-10-23T02:32:51.367Z,9.50
2022-10-23T02:35:24.529Z,9.50
2022-10-23T02:37:55.433Z,9.50
2022-10-23T02:40:25.292Z,9.50
2022-10-23T02:42:59.355Z,9.40
2022-10-23T02:45:33.726Z,9.50
2022-10-23T02:48:09.789Z,9.40
2022-10-23T02:50:45.595Z,9.30
2022-10-23T02:53:19.383Z,9.30
2022-10-23T02:55:59.233Z,9.30
2022-10-23T02:58:31.728Z,9.30
2022-10-23T03:01:07.004Z,9.30
2022-10-23T03:03:41.301Z,9.40
2022-10-23T03:06:10.243Z,9.40
2022-10-23T03:08:53.753Z,9.40
2022-10-23T03:11:22.389Z,9.40
2022-10-23T03:13:50.980Z,9.30
2022-10-23T03:16:20.903Z,9.30
2022-10-23T03:18:49.425Z,9.30
2022-10-23T03:21:18.042Z,9.30
2022-10-23T03:23:46.682Z,9.30
2022-10-23T03:26:15.878Z,9.30
2022-10-23T03:28:44.636Z,9.40
2022-10-23T03:31:13.807Z,9.50
2022-10-23T03:33:44.282Z,9.50
2022-10-23T03:36:13.196Z,9.40
2022-10-23T03:38:41.879Z,9.40
2022-10-23T03:41:10.477Z,9.40
2022-10-23T03:43:39.104Z,9.30
2022-10-23T03:46:12.883Z,9.40
2022-10-23T03:48:43.927Z,9.40
2022-10-23T03:51:12.980Z,9.30
2022-10-23T03:53:41.520Z,9.30
2022-10-23T03:56:10.196Z,9.20
2022-10-23T03:58:38.733Z,9.20
2022-10-23T04:01:07.331Z,9.30
2022-10-23T04:03:35.999Z,9.30
2022-10-23T04:06:06.160Z,9.20
2022-10-23T04:08:34.824Z,9.20
2022-10-23T04:11:03.681Z,9.20
2022-10-23T04:13:32.374Z,9.20
2022-10-23T04:16:00.976Z,9.30
2022-10-23T04:18:29.521Z,9.30
2022-10-23T04:20:58.111Z,9.30
2022-10-23T04:23:28.006Z,9.40
2022-10-23T04:25:58.005Z,9.30
2022-10-23T04:28:27.696Z,9.30
2022-10-23T04:30:56.428Z,9.30
2022-10-23T04:33:25.046Z,9.40
2022-10-23T04:35:54.119Z,9.40
2022-10-23T04:38:22.837Z,9.50
2022-10-23T04:40:52.891Z,9.50
2022-10-23T04:43:21.511Z,9.50
2022-10-23T04:45:50.581Z,9.50
2022-10-23T04:48:19.206Z,9.50
2022-10-23T04:50:57.387Z,9.60
2022-10-23T04:53:26.671Z,9.60
2022-10-23T04:55:58.639Z,9.60
2022-10-23T04:58:28.492Z,9.60
2022-10-23T05:00:57.737Z,9.70
2022-10-23T05:03:27.493Z,9.80
2022-10-23T05:05:57.776Z,9.80
2022-10-23T05:08:26.620Z,9.70
2022-10-23T05:10:56.662Z,9.60
2022-10-23T05:13:25.298Z,9.50
2022-10-23T05:15:54.567Z,9.60
2022-10-23T05:18:27.244Z,9.50
2022-10-23T05:20:59.258Z,9.50
2022-10-23T05:23:29.214Z,9.50
2022-10-23T05:25:59.250Z,9.50
2022-10-23T05:28:27.834Z,9.60
2022-10-23T05:30:56.959Z,9.60
2022-10-23T05:33:25.718Z,9.50
2022-10-23T05:35:54.636Z,9.60
2022-10-23T05:38:23.426Z,9.50
2022-10-23T05:40:52.920Z,9.60
2022-10-23T05:43:22.954Z,9.70
2022-10-23T05:45:51.700Z,9.80
2022-10-23T05:48:34.162Z,9.80
2022-10-23T05:51:07.834Z,9.80
2022-10-23T05:53:38.893Z,9.90
2022-10-23T05:56:10.989Z,10.00
2022-10-23T05:58:40.935Z,10.10
2022-10-23T06:01:11.806Z,10.20
2022-10-23T06:03:40.827Z,10.20
2022-10-23T06:06:09.810Z,10.10
2022-10-23T06:08:38.626Z,10.00
2022-10-23T06:11:08.901Z,10.00
2022-10-23T06:13:37.734Z,10.10
2022-10-23T06:16:17.805Z,10.10
2022-10-23T06:18:47.037Z,10.10
2022-10-23T06:21:16.886Z,10.10
2022-10-23T06:23:47.139Z,10.20
2022-10-23T06:26:17.897Z,10.20
2022-10-23T06:28:46.840Z,10.40
2022-10-23T06:31:20.523Z,10.40
2022-10-23T06:33:49.153Z,10.50
2022-10-23T06:36:17.788Z,10.50
2022-10-23T06:38:46.451Z,10.70
2022-10-23T06:41:21.001Z,10.60
2022-10-23T06:43:50.446Z,10.70
2022-10-23T06:46:20.878Z,10.80
2022-10-23T06:48:50.082Z,10.70
2022-10-23T06:51:19.255Z,10.80
2022-10-23T06:53:47.940Z,11.00
2022-10-23T06:56:16.594Z,11.00
2022-10-23T06:58:48.606Z,11.10
2022-10-23T07:01:17.528Z,11.00
2022-10-23T07:03:49.505Z,11.10
2022-10-23T07:06:18.346Z,11.20
2022-10-23T07:08:46.883Z,11.30
2022-10-23T07:11:16.013Z,11.40
2022-10-23T07:13:46.610Z,11.40
2022-10-23T07:16:19.216Z,11.50
2022-10-23T07:18:50.091Z,11.60
2022-10-23T07:21:18.667Z,11.70
2022-10-23T07:23:47.234Z,11.70
2022-10-23T07:26:17.537Z,11.70
2022-10-23T07:28:47.527Z,11.70
2022-10-23T07:31:16.284Z,11.70
2022-10-23T07:33:49.325Z,11.70
2022-10-23T07:36:18.446Z,11.80
2022-10-23T07:38:47.087Z,11.80
2022-10-23T07:41:15.961Z,11.90
2022-10-23T07:43:45.536Z,11.90
2022-10-23T07:46:14.209Z,12.00
2022-10-23T07:48:43.011Z,12.10
2022-10-23T07:51:15.949Z,12.20
2022-10-23T07:53:45.606Z,12.20
2022-10-23T07:56:16.492Z,12.30
2022-10-23T07:58:45.647Z,12.30
2022-10-23T08:01:19.211Z,12.30
2022-10-23T08:03:48.180Z,12.40
2022-10-23T08:06:18.320Z,12.50
2022-10-23T08:08:47.113Z,12.50
2022-10-23T08:11:20.341Z,12.60
2022-10-23T08:13:49.059Z,12.70
2022-10-23T08:16:17.645Z,12.70
2022-10-23T08:18:47.218Z,12.70
2022-10-23T08:21:18.327Z,12.80
2022-10-23T08:23:47.137Z,12.80
2022-10-23T08:26:16.579Z,12.90
2022-10-23T08:28:45.914Z,12.90
2022-10-23T08:31:18.143Z,12.90
2022-10-23T08:33:47.009Z,13.00
2022-10-23T08:36:22.190Z,13.00
2022-10-23T08:38:52.157Z,13.10
2022-10-23T08:41:26.787Z,13.20
2022-10-23T08:44:02.803Z,13.30
2022-10-23T08:46:35.699Z,13.30
2022-10-23T08:49:17.855Z,13.40
2022-10-23T08:51:50.801Z,13.40
2022-10-23T08:54:58.818Z,13.40
2022-10-23T08:57:35.527Z,13.50
2022-10-23T09:00:08.484Z,13.60
2022-10-23T09:02:42.372Z,13.70
2022-10-23T09:05:17.791Z,13.70
2022-10-23T09:08:17.939Z,13.80
2022-10-23T09:11:05.866Z,13.90
2022-10-23T09:14:00.944Z,13.90
2022-10-23T09:16:45.063Z,14.00
2022-10-23T09:19:17.653Z,14.10
2022-10-23T09:21:49.931Z,14.10
2022-10-23T09:24:22.458Z,14.20
2022-10-23T09:26:53.149Z,14.20
2022-10-23T09:29:26.554Z,14.30
2022-10-23T09:31:57.222Z,14.40
2022-10-23T09:34:28.631Z,14.50
2022-10-23T09:36:59.316Z,14.50
2022-10-23T09:39:32.639Z,14.60
2022-10-23T09:42:02.702Z,14.70
2022-10-23T09:44:33.132Z,14.70
2022-10-23T09:47:11.258Z,14.70
2022-10-23T09:49:47.597Z,14.70
2022-10-23T09:52:29.959Z,14.70
2022-10-23T09:55:02.654Z,14.70
2022-10-23T09:57:34.035Z,14.70
2022-10-23T10:00:05.858Z,14.70
2022-10-23T10:02:36.756Z,14.70
2022-10-23T10:05:24.312Z,14.70
2022-10-23T10:07:59.429Z,14.60
2022-10-23T10:10:36.021Z,14.60
2022-10-23T10:13:14.234Z,14.50
2022-10-23T10:15:50.273Z,14.60
2022-10-23T10:18:26.177Z,14.60
2022-10-23T10:21:08.087Z,14.60
2022-10-23T10:23:46.334Z,14.70
2022-10-23T10:26:27.904Z,14.80
2022-10-23T10:29:06.374Z,14.90
2022-10-23T10:31:50.679Z,14.90
2022-10-23T10:34:29.787Z,15.00
2022-10-23T10:37:04.046Z,15.00
2022-10-23T10:39:42.922Z,15.10
2022-10-23T10:42:38.332Z,15.20
2022-10-23T10:45:19.488Z,15.30
2022-10-23T10:48:04.491Z,15.40
2022-10-23T10:50:40.296Z,15.50
2022-10-23T10:53:20.057Z,15.50
2022-10-23T10:55:52.088Z,15.60
2022-10-23T10:58:26.303Z,15.60
2022-10-23T11:01:00.033Z,15.70
2022-10-23T11:03:40.011Z,15.70
2022-10-23T11:06:17.702Z,15.70
2022-10-23T11:08:57.198Z,15.70
2022-10-23T11:11:37.135Z,15.70
2022-10-23T11:14:08.108Z,15.70
2022-10-23T11:16:40.514Z,15.70
2022-10-23T11:19:16.690Z,15.70
2022-10-23T11:21:48.743Z,15.80
2022-10-23T11:25:02.121Z,15.90
2022-10-23T11:27:48.682Z,16.00
2022-10-23T11:30:29.803Z,16.10
2022-10-23T11:33:37.071Z,16.20
2022-10-23T11:36:15.620Z,16.20
2022-10-23T11:38:46.843Z,16.20
2022-10-23T11:41:25.393Z,16.20
2022-10-23T11:43:57.151Z,16.30
2022-10-23T11:46:38.801Z,16.30
2022-10-23T11:49:20.667Z,16.40
2022-10-23T11:52:00.347Z,16.50
2022-10-23T11:54:29.091Z,16.50
2022-10-23T11:57:14.115Z,16.60
2022-10-23T11:59:53.867Z,16.70
2022-10-23T12:02:34.152Z,16.80
2022-10-23T12:05:07.354Z,16.90
2022-10-23T12:07:38.953Z,17.00
2022-10-23T12:10:19.051Z,17.00
2022-10-23T12:12:57.989Z,17.00
2022-10-23T12:15:27.613Z,17.10
2022-10-23T12:18:08.759Z,17.10
2022-10-23T12:20:45.516Z,17.30
2022-10-23T12:23:37.948Z,17.40
2022-10-23T12:26:20.289Z,17.40
2022-10-23T12:28:56.056Z,17.50
2022-10-23T12:31:37.104Z,17.60
2022-10-23T12:34:18.625Z,17.70
2022-10-23T12:37:09.859Z,17.90
2022-10-23T12:39:39.315Z,18.00
2022-10-23T12:42:16.882Z,17.90
2022-10-23T12:44:45.760Z,17.90
2022-10-23T12:47:19.722Z,18.00
2022-10-23T12:49:52.469Z,18.00
2022-10-23T12:52:24.622Z,17.90
2022-10-23T12:54:53.402Z,18.00
2022-10-23T12:57:23.820Z,17.90
2022-10-23T12:59:56.139Z,17.90
2022-10-23T13:02:26.834Z,17.80
2022-10-23T13:05:00.916Z,17.90
2022-10-23T13:07:32.838Z,17.80
2022-10-23T13:10:02.721Z,17.90
2022-10-23T13:12:33.698Z,17.90
2022-10-23T13:15:04.427Z,18.00
2022-10-23T13:17:38.805Z,18.00
2022-10-23T13:20:20.442Z,18.10
2022-10-23T13:22:56.410Z,18.10
2022-10-23T13:25:30.791Z,18.10
2022-10-23T13:28:24.763Z,18.10
2022-10-23T13:31:08.492Z,18.20
2022-10-23T13:33:39.043Z,18.20
2022-10-23T13:36:23.225Z,18.20
2022-10-23T13:39:03.413Z,18.20
2022-10-23T13:41:38.398Z,18.20
2022-10-23T13:44:07.420Z,18.20
2022-10-23T13:46:35.987Z,18.20
2022-10-23T13:49:04.632Z,18.10
2022-10-23T13:51:42.477Z,18.10
2022-10-23T13:54:16.192Z,18.00
2022-10-23T13:56:45.434Z,18.10
2022-10-23T13:59:15.373Z,18.10
2022-10-23T14:01:46.012Z,18.20
2022-10-23T14:04:15.593Z,18.20
2022-10-23T14:06:47.996Z,18.20
2022-10-23T14:09:18.439Z,18.20
2022-10-23T14:11:47.845Z,18.20
2022-10-23T14:14:16.617Z,18.20
2022-10-23T14:16:45.780Z,18.20
2022-10-23T14:19:14.490Z,18.20
2022-10-23T14:21:43.071Z,18.10
2022-10-23T14:24:13.031Z,18.10
2022-10-23T14:26:43.207Z,18.00
2022-10-23T14:29:21.273Z,18.00
2022-10-23T14:31:51.822Z,18.00
2022-10-23T14:34:20.404Z,18.00
2022-10-23T14:36:50.109Z,18.10
2022-10-23T14:39:21.034Z,18.20
2022-10-23T14:41:49.624Z,18.20
2022-10-23T14:44:18.308Z,18.20
2022-10-23T14:46:46.990Z,18.20
2022-10-23T14:49:15.831Z,18.20
2022-10-23T14:51:47.653Z,18.10
2022-10-23T14:54:16.271Z,18.10
2022-10-23T14:56:46.165Z,18.00
2022-10-23T14:59:15.323Z,18.00
2022-10-23T15:01:48.391Z,17.90
2022-10-23T15:04:17.536Z,17.80
2022-10-23T15:06:47.131Z,17.70
2022-10-23T15:09:16.369Z,17.60
2022-10-23T15:11:46.439Z,17.60
2022-10-23T15:14:15.424Z,17.50
2022-10-23T15:16:48.217Z,17.40
2022-10-23T15:19:18.563Z,17.30
2022-10-23T15:21:48.167Z,17.30
2022-10-23T15:24:16.911Z,17.20
2022-10-23T15:26:47.854Z,17.10
2022-10-23T15:29:17.175Z,17.10
2022-10-23T15:31:53.099Z,17.00
2022-10-23T15:34:24.695Z,17.00
2022-10-23T15:36:54.005Z,16.90
2022-10-23T15:39:24.623Z,16.90
2022-10-23T15:41:56.334Z,16.90
2022-10-23T15:44:27.100Z,16.90
2022-10-23T15:46:57.504Z,16.80
2022-10-23T15:49:27.171Z,16.80
2022-10-23T15:51:56.384Z,16.80
2022-10-23T15:54:28.149Z,16.70
2022-10-23T15:57:00.744Z,16.70
2022-10-23T15:59:30.373Z,16.60
2022-10-23T16:01:59.683Z,16.50
2022-10-23T16:04:29.552Z,16.50
2022-10-23T16:06:58.170Z,16.40
2022-10-23T16:09:26.903Z,16.40
2022-10-23T16:11:55.666Z,16.40
2022-10-23T16:14:25.756Z,16.30
2022-10-23T16:16:54.438Z,16.30
2022-10-23T16:19:23.065Z,16.30
2022-10-23T16:21:51.605Z,16.30
2022-10-23T16:24:20.288Z,16.30
2022-10-23T16:26:53.121Z,16.20
2022-10-23T16:29:23.696Z,16.30
2022-10-23T16:31:53.966Z,16.20
2022-10-23T16:34:23.054Z,16.20
2022-10-23T16:36:51.684Z,16.20
2022-10-23T16:39:21.115Z,16.20
2022-10-23T16:41:49.762Z,16.10
2022-10-23T16:44:18.373Z,16.10
2022-10-23T16:46:46.952Z,16.00
2022-10-23T16:49:17.464Z,16.00
2022-10-23T16:51:46.170Z,16.10
2022-10-23T16:54:17.689Z,16.00
2022-10-23T16:56:47.341Z,16.00
2022-10-23T16:59:18.749Z,16.00
2022-10-23T17:01:47.541Z,15.90
2022-10-23T17:04:17.965Z,15.90
2022-10-23T17:06:46.932Z,15.80
2022-10-23T17:09:17.031Z,15.70
2022-10-23T17:11:46.193Z,15.60
2022-10-23T17:14:18.575Z,15.60
2022-10-23T17:16:48.849Z,15.50
2022-10-23T17:19:40.203Z,15.50
2022-10-23T17:22:11.364Z,15.50
2022-10-23T17:24:40.728Z,15.50
2022-10-23T17:27:09.811Z,15.40
2022-10-23T17:29:38.475Z,15.40
2022-10-23T17:32:07.255Z,15.40
2022-10-23T17:34:37.207Z,15.40
2022-10-23T17:37:05.839Z,15.40
2022-10-23T17:39:34.507Z,15.50
2022-10-23T17:42:03.139Z,15.40
2022-10-23T17:44:31.786Z,15.40
2022-10-23T17:47:00.455Z,15.40
2022-10-23T17:49:29.178Z,15.40
2022-10-23T17:51:59.423Z,15.40
2022-10-23T17:54:29.104Z,15.40
2022-10-23T17:56:57.756Z,15.40
2022-10-23T17:59:26.472Z,15.50
2022-10-23T18:01:55.987Z,15.50
2022-10-23T18:04:27.477Z,15.50
2022-10-23T18:06:56.056Z,15.50
2022-10-23T18:09:26.191Z,15.50
2022-10-23T18:11:54.779Z,15.50
2022-10-23T18:14:26.126Z,15.50
2022-10-23T18:16:57.355Z,15.50
2022-10-23T18:19:26.076Z,15.60
2022-10-23T18:21:54.831Z,15.60
2022-10-23T18:24:23.627Z,15.70
2022-10-23T18:26:53.903Z,15.70
2022-10-23T18:29:22.846Z,15.70
2022-10-23T18:31:51.616Z,15.80
2022-10-23T18:34:22.516Z,15.80
2022-10-23T18:36:52.523Z,15.90
2022-10-23T18:39:27.391Z,15.90
2022-10-23T18:41:58.753Z,15.90
2022-10-23T18:44:29.480Z,15.90
2022-10-23T18:46:58.487Z,16.00
2022-10-23T18:49:27.924Z,16.00
2022-10-23T18:51:58.348Z,15.90
2022-10-23T18:54:27.180Z,15.90
2022-10-23T18:56:57.243Z,15.90
2022-10-23T18:59:26.131Z,15.90
2022-10-23T19:01:54.860Z,15.90
2022-10-23T19:04:23.592Z,15.80
2022-10-23T19:06:52.496Z,15.90
2022-10-23T19:09:21.364Z,15.90
2022-10-23T19:11:50.238Z,15.90
2022-10-23T19:14:20.271Z,15.90
2022-10-23T19:17:00.375Z,15.90
2022-10-23T19:19:31.658Z,15.90
2022-10-23T19:22:01.035Z,15.90
2022-10-23T19:24:36.036Z,15.90
2022-10-23T19:27:05.424Z,16.00
2022-10-23T19:29:37.849Z,16.00
2022-10-23T19:32:07.283Z,15.90
2022-10-23T19:34:36.136Z,16.00
2022-10-23T19:37:04.836Z,15.90
2022-10-23T19:39:33.626Z,16.00
2022-10-23T19:42:02.312Z,16.10
2022-10-23T19:44:31.148Z,16.00
2022-10-23T19:47:01.233Z,16.10
2022-10-23T19:49:29.890Z,16.20
2022-10-23T19:51:58.547Z,16.20
2022-10-23T19:54:27.273Z,16.30
2022-10-23T19:56:58.513Z,16.30
2022-10-23T19:59:27.178Z,16.10
2022-10-23T20:01:55.984Z,16.10
2022-10-23T20:04:26.113Z,16.10
2022-10-23T20:06:54.694Z,16.00
2022-10-23T20:09:23.954Z,15.80
2022-10-23T20:11:52.681Z,15.70
2022-10-23T20:14:21.445Z,15.60
2022-10-23T20:16:54.955Z,15.40
2022-10-23T20:19:26.057Z,15.40
2022-10-23T20:21:55.114Z,15.20
2022-10-23T20:24:23.934Z,15.20
2022-10-23T20:26:55.615Z,15.20
2022-10-23T20:29:25.854Z,15.10
2022-10-23T20:31:54.555Z,15.00
2022-10-23T20:34:23.198Z,15.00
2022-10-23T20:36:53.303Z,15.00
2022-10-23T20:39:25.633Z,15.00
2022-10-23T20:41:55.654Z,15.00
2022-10-23T20:44:25.224Z,14.90
2022-10-23T20:46:54.287Z,14.90
2022-10-23T20:49:23.408Z,14.90
2022-10-23T20:51:55.705Z,14.80
2022-10-23T20:54:26.907Z,14.80
2022-10-23T20:56:56.975Z,14.80
2022-10-23T20:59:26.020Z,14.80
2022-10-23T21:01:55.545Z,14.70
2022-10-23T21:04:27.765Z,14.70
2022-10-23T21:07:16.438Z,14.70
2022-10-23T21:09:45.993Z,14.70
2022-10-23T21:12:15.484Z,14.60
2022-10-23T21:14:44.279Z,14.60
2022-10-23T21:17:16.925Z,14.60
2022-10-23T21:19:45.940Z,14.60
2022-10-23T21:22:16.069Z,14.60
2022-10-23T21:24:45.487Z,14.50
2022-10-23T21:27:15.196Z,14.50
2022-10-23T21:29:47.881Z,14.50
2022-10-23T21:32:16.439Z,14.60
2022-10-23T21:34:48.536Z,14.60
2022-10-23T21:37:20.942Z,14.60
2022-10-23T21:39:49.494Z,14.60
2022-10-23T21:42:18.233Z,14.70
2022-10-23T21:44:47.015Z,14.80
2022-10-23T21:47:16.003Z,14.90
2022-10-23T21:49:45.422Z,14.90
2022-10-23T21:52:19.057Z,14.90
2022-10-23T21:54:52.912Z,14.90
2022-10-23T21:57:22.133Z,14.80
2022-10-23T21:59:50.744Z,14.80
2022-10-23T22:02:19.574Z,14.70
2022-10-23T22:04:48.216Z,14.70
2022-10-23T22:07:19.770Z,14.70
2022-10-23T22:09:48.399Z,14.60
2022-10-23T22:12:18.470Z,14.60
2022-10-23T22:14:47.206Z,14.60
2022-10-23T22:17:18.066Z,14.60
2022-10-23T22:19:46.651Z,14.60
2022-10-23T22:22:15.979Z,14.70
2022-10-23T22:24:45.300Z,14.70
2022-10-23T22:27:16.922Z,14.70
2022-10-23T22:29:49.733Z,14.70
2022-10-23T22:32:18.349Z,14.70
2022-10-23T22:34:52.674Z,14.80
2022-10-23T22:37:22.063Z,14.90
2022-10-23T22:39:51.957Z,15.00
2022-10-23T22:42:20.597Z,15.10
2022-10-23T22:44:50.511Z,15.10
2022-10-23T22:47:19.145Z,15.10
2022-10-23T22:49:47.689Z,15.00
2022-10-23T22:52:19.081Z,15.00
2022-10-23T22:54:49.023Z,15.00
2022-10-23T22:57:17.650Z,14.90
2022-10-23T22:59:46.205Z,14.80
2022-10-23T23:02:16.333Z,14.70
2022-10-23T23:04:45.473Z,14.60
2022-10-23T23:07:14.470Z,14.60
2022-10-23T23:09:44.373Z,14.60
2022-10-23T23:12:15.645Z,14.60
2022-10-23T23:14:44.543Z,14.60
2022-10-23T23:17:14.296Z,14.60
2022-10-23T23:19:44.676Z,14.50
2022-10-23T23:22:13.475Z,14.50
2022-10-23T23:24:42.104Z,14.50
2022-10-23T23:27:10.602Z,14.40
2022-10-23T23:29:39.250Z,14.40
2022-10-23T23:32:07.895Z,14.40
2022-10-23T23:34:36.491Z,14.40
2022-10-23T23:37:06.439Z,14.40
2022-10-23T23:39:35.068Z,14.40
2022-10-23T23:42:03.833Z,14.40
2022-10-23T23:44:32.544Z,14.40
2022-10-23T23:47:01.133Z,14.30
2022-10-23T23:49:29.685Z,14.30
2022-10-23T23:51:58.333Z,14.20
2022-10-23T23:54:28.527Z,14.10
2022-10-23T23:56:59.076Z,14.10
2022-10-23T23:59:27.955Z,14.10
